Time;durP1;ratioP1;P1;durP2;ratioP2;P2;SDS_P1;SDS_P2;PMS_P1;PMS_P2;Temp;Humidity;BMP_temperature;BMP_pressure;BME280_temperature;BME280_humidity;BME280_pressure;Samples;Min_cycle;Max_cycle;Signal;HPM_P1;HPM_P2
2021/05/22 00:00:24;;;;;;;7.10;3.97;;;;;;;;;;143738;591;46018;-58
2021/05/22 00:02:52;;;;;;;7.80;4.93;;;;;;;;;;143744;566;45023;-59
2021/05/22 00:05:19;;;;;;;10.93;4.72;;;;;;;;;;143740;576;46018;-58
2021/05/22 00:07:46;;;;;;;10.38;4.93;;;;;;;;;;143734;608;46010;-58
2021/05/22 00:10:14;;;;;;;5.80;4.28;;;;;;;;;;143735;618;46019;-58
2021/05/22 00:12:43;;;;;;;8.02;4.18;;;;;;;;;;143739;576;46022;-58
2021/05/22 00:15:13;;;;;;;4.75;4.12;;;;;;;;;;143737;582;46018;-59
2021/05/22 00:17:40;;;;;;;7.55;4.85;;;;;;;;;;143739;592;46010;-59
2021/05/22 00:20:08;;;;;;;8.40;5.22;;;;;;;;;;143740;597;46018;-58
2021/05/22 00:22:35;;;;;;;7.97;5.25;;;;;;;;;;143739;626;45022;-58
2021/05/22 00:25:03;;;;;;;8.57;4.22;;;;;;;;;;143730;564;47013;-58
2021/05/22 00:27:30;;;;;;;5.30;4.00;;;;;;;;;;143736;569;46010;-58
2021/05/22 00:29:57;;;;;;;5.50;4.10;;;;;;;;;;143737;582;46018;-58
2021/05/22 00:32:24;;;;;;;6.87;3.85;;;;;;;;;;143743;572;45023;-58
2021/05/22 00:34:51;;;;;;;8.20;5.15;;;;;;;;;;143741;641;46018;-59
2021/05/22 00:37:18;;;;;;;7.03;4.20;;;;;;;;;;143736;572;46010;-58
2021/05/22 00:39:45;;;;;;;7.60;4.40;;;;;;;;;;143741;618;46019;-59
2021/05/22 00:42:12;;;;;;;6.03;4.10;;;;;;;;;;143739;599;45022;-58
2021/05/22 00:45:14;;;;;;;5.75;3.85;;;;;;;;;;143740;575;46018;-59
2021/05/22 00:47:44;;;;;;;6.47;3.72;;;;;;;;;;143738;587;46010;-58
2021/05/22 00:50:16;;;;;;;6.05;4.30;;;;;;;;;;143737;596;46018;-58
2021/05/22 00:52:43;;;;;;;5.10;4.07;;;;;;;;;;143744;566;45022;-58
2021/05/22 00:55:11;;;;;;;5.32;4.20;;;;;;;;;;143740;571;46018;-59
2021/05/22 00:57:41;;;;;;;6.10;4.62;;;;;;;;;;143733;598;46010;-59
2021/05/22 01:00:11;;;;;;;13.43;5.03;;;;;;;;;;143740;572;46018;-58
2021/05/22 01:02:38;;;;;;;7.87;4.75;;;;;;;;;;143739;569;45023;-59
2021/05/22 01:05:06;;;;;;;4.82;3.95;;;;;;;;;;143739;627;46018;-58
2021/05/22 01:07:33;;;;;;;6.68;4.20;;;;;;;;;;143732;588;46010;-59
2021/05/22 01:10:01;;;;;;;5.55;3.67;;;;;;;;;;143738;639;46019;-58
2021/05/22 01:12:32;;;;;;;7.28;4.90;;;;;;;;;;143742;592;46022;-58
2021/05/22 01:15:17;;;;;;;4.50;3.92;;;;;;;;;;143735;601;46018;-59
2021/05/22 01:17:50;;;;;;;14.60;4.65;;;;;;;;;;143734;767;46010;-58
2021/05/22 01:20:59;;;;;;;4.80;3.95;;;;;;;;;;143734;631;46018;-59
2021/05/22 01:23:32;;;;;;;6.43;4.05;;;;;;;;;;143735;626;46023;-58
2021/05/22 01:26:00;;;;;;;9.18;4.72;;;;;;;;;;143738;585;46021;-59
2021/05/22 01:28:27;;;;;;;5.97;4.05;;;;;;;;;;143736;577;46010;-58
2021/05/22 01:30:55;;;;;;;8.30;4.85;;;;;;;;;;143736;565;46037;-58
2021/05/22 01:33:22;;;;;;;5.72;4.30;;;;;;;;;;143737;565;45021;-58
2021/05/22 01:35:50;;;;;;;7.60;4.50;;;;;;;;;;143737;591;46020;-58
2021/05/22 01:38:17;;;;;;;4.45;3.80;;;;;;;;;;143736;584;46010;-59
2021/05/22 01:40:45;;;;;;;5.85;4.68;;;;;;;;;;143731;589;46021;-59
2021/05/22 01:43:12;;;;;;;4.65;3.70;;;;;;;;;;143738;617;45020;-58
2021/05/22 01:45:43;;;;;;;4.47;3.72;;;;;;;;;;143739;609;46022;-59
2021/05/22 01:48:16;;;;;;;6.40;4.20;;;;;;;;;;143735;594;46010;-59
2021/05/22 01:50:50;;;;;;;4.80;4.03;;;;;;;;;;143733;656;45020;-58
2021/05/22 01:53:18;;;;;;;5.68;4.05;;;;;;;;;;143737;647;45027;-58
2021/05/22 01:55:47;;;;;;;11.45;5.12;;;;;;;;;;143739;575;46020;-58
2021/05/22 01:58:14;;;;;;;10.40;6.65;;;;;;;;;;143731;610;46010;-58
2021/05/22 02:00:44;;;;;;;11.05;5.45;;;;;;;;;;143736;570;46020;-59
2021/05/22 02:03:37;;;;;;;10.13;6.15;;;;;;;;;;143738;652;45021;-59
2021/05/22 02:06:06;;;;;;;9.43;5.07;;;;;;;;;;143734;564;46020;-58
2021/05/22 02:08:37;;;;;;;18.95;5.93;;;;;;;;;;143736;598;46011;-58
2021/05/22 02:11:06;;;;;;;16.65;6.28;;;;;;;;;;143735;583;46020;-59
2021/05/22 02:13:35;;;;;;;11.85;6.50;;;;;;;;;;143738;626;45020;-59
2021/05/22 02:16:03;;;;;;;9.55;6.32;;;;;;;;;;143732;571;47014;-59
2021/05/22 02:18:34;;;;;;;20.55;7.15;;;;;;;;;;143736;658;46010;-58
2021/05/22 02:21:03;;;;;;;7.75;5.15;;;;;;;;;;143733;598;46020;-58
2021/05/22 02:23:33;;;;;;;16.08;7.87;;;;;;;;;;143740;628;45021;-58
2021/05/22 02:26:00;;;;;;;11.18;5.55;;;;;;;;;;143734;575;46023;-58
2021/05/22 02:28:39;;;;;;;11.93;6.22;;;;;;;;;;143732;634;46010;-58
2021/05/22 02:31:06;;;;;;;13.20;6.05;;;;;;;;;;143734;566;46021;-58
2021/05/22 02:33:34;;;;;;;9.00;5.18;;;;;;;;;;143735;570;46019;-59
2021/05/22 02:36:01;;;;;;;8.95;5.45;;;;;;;;;;143736;601;46020;-58
2021/05/22 02:38:47;;;;;;;12.40;5.15;;;;;;;;;;143732;646;46010;-58
2021/05/22 02:41:15;;;;;;;10.27;5.50;;;;;;;;;;143736;636;46020;-58
2021/05/22 02:43:46;;;;;;;7.35;5.00;;;;;;;;;;143737;594;46020;-58
2021/05/22 02:46:16;;;;;;;8.70;5.43;;;;;;;;;;143737;581;46020;-58
2021/05/22 02:48:44;;;;;;;12.40;6.80;;;;;;;;;;143735;569;46010;-58
2021/05/22 02:51:13;;;;;;;16.75;7.70;;;;;;;;;;143736;568;46020;-59
2021/05/22 02:53:42;;;;;;;14.07;7.10;;;;;;;;;;143737;649;45021;-58
2021/05/22 02:56:11;;;;;;;10.45;5.60;;;;;;;;;;143735;569;46020;-59
2021/05/22 02:58:42;;;;;;;8.75;5.60;;;;;;;;;;143732;578;46010;-59
2021/05/22 03:01:10;;;;;;;9.38;5.37;;;;;;;;;;143735;637;46021;-59
2021/05/22 03:03:39;;;;;;;9.32;4.97;;;;;;;;;;143738;592;45020;-59
2021/05/22 03:06:06;;;;;;;9.60;4.95;;;;;;;;;;143737;584;46020;-58
2021/05/22 03:08:44;;;;;;;7.30;4.57;;;;;;;;;;143733;612;46010;-58
2021/05/22 03:11:12;;;;;;;8.98;5.18;;;;;;;;;;143737;630;46019;-59
2021/05/22 03:13:38;;;;;;;12.30;6.30;;;;;;;;;;143736;568;46018;-58
2021/05/22 03:16:06;;;;;;;7.80;5.93;;;;;;;;;;143735;641;46021;-58
2021/05/22 03:18:33;;;;;;;10.30;5.30;;;;;;;;;;143736;564;46010;-59
2021/05/22 03:21:00;;;;;;;13.23;6.05;;;;;;;;;;143734;613;46020;-59
2021/05/22 03:23:27;;;;;;;9.30;6.12;;;;;;;;;;143737;565;46020;-59
2021/05/22 03:25:55;;;;;;;9.40;5.82;;;;;;;;;;143738;567;46020;-59
2021/05/22 03:28:23;;;;;;;14.90;5.95;;;;;;;;;;143735;606;45919;-58
2021/05/22 03:30:50;;;;;;;9.48;5.45;;;;;;;;;;143734;593;46021;-58
2021/05/22 03:33:17;;;;;;;9.45;5.43;;;;;;;;;;143736;584;46010;-58
2021/05/22 03:35:44;;;;;;;13.10;5.53;;;;;;;;;;143735;644;46020;-59
2021/05/22 03:38:11;;;;;;;13.88;5.55;;;;;;;;;;143732;572;46010;-59
2021/05/22 03:40:38;;;;;;;10.73;5.55;;;;;;;;;;143735;601;46020;-58
2021/05/22 03:43:05;;;;;;;11.27;5.95;;;;;;;;;;143737;586;46020;-59
2021/05/22 03:45:33;;;;;;;10.27;6.32;;;;;;;;;;143735;570;46021;-59
2021/05/22 03:48:00;;;;;;;17.17;6.43;;;;;;;;;;143731;645;46010;-59
2021/05/22 03:50:27;;;;;;;17.55;6.12;;;;;;;;;;143734;572;46020;-60
2021/05/22 03:52:54;;;;;;;21.02;7.47;;;;;;;;;;143737;666;45021;-60
2021/05/22 03:55:21;;;;;;;21.98;7.43;;;;;;;;;;143736;650;46020;-60
2021/05/22 03:57:48;;;;;;;10.02;6.47;;;;;;;;;;143732;564;46010;-59
2021/05/22 04:00:16;;;;;;;12.32;7.18;;;;;;;;;;143736;635;46020;-59
2021/05/22 04:02:43;;;;;;;14.60;7.97;;;;;;;;;;143734;572;46020;-60
2021/05/22 04:05:10;;;;;;;13.27;6.25;;;;;;;;;;143735;596;46020;-60
2021/05/22 04:07:37;;;;;;;18.70;8.45;;;;;;;;;;143732;564;46010;-60
2021/05/22 04:10:05;;;;;;;15.02;7.37;;;;;;;;;;143731;640;46020;-59
2021/05/22 04:12:32;;;;;;;19.60;8.55;;;;;;;;;;143737;576;45020;-59
2021/05/22 04:14:59;;;;;;;13.55;6.05;;;;;;;;;;143735;581;46021;-59
2021/05/22 04:17:26;;;;;;;13.23;6.05;;;;;;;;;;143732;571;46010;-59
2021/05/22 04:19:53;;;;;;;9.77;6.07;;;;;;;;;;143735;564;46020;-59
2021/05/22 04:22:21;;;;;;;9.85;6.03;;;;;;;;;;143743;665;45021;-60
2021/05/22 04:24:48;;;;;;;16.15;6.65;;;;;;;;;;143737;577;46020;-60
2021/05/22 04:27:15;;;;;;;13.15;6.43;;;;;;;;;;143732;605;46010;-61
2021/05/22 04:29:42;;;;;;;19.52;7.28;;;;;;;;;;143736;566;46020;-60
2021/05/22 04:32:09;;;;;;;16.80;7.20;;;;;;;;;;143737;564;45021;-60
2021/05/22 04:34:36;;;;;;;18.12;7.05;;;;;;;;;;143736;579;46020;-61
2021/05/22 04:37:03;;;;;;;17.60;7.40;;;;;;;;;;143734;569;46013;-61
2021/05/22 04:39:30;;;;;;;16.23;6.35;;;;;;;;;;143736;585;45021;-61
2021/05/22 04:41:58;;;;;;;14.73;6.93;;;;;;;;;;143737;732;45030;-61
2021/05/22 04:44:25;;;;;;;17.00;6.85;;;;;;;;;;143735;644;46021;-61
2021/05/22 04:46:52;;;;;;;17.85;7.35;;;;;;;;;;143732;571;46010;-60
2021/05/22 04:49:18;;;;;;;11.32;6.45;;;;;;;;;;143736;577;45020;-61
2021/05/22 04:51:46;;;;;;;16.85;7.05;;;;;;;;;;143736;576;46028;-60
2021/05/22 04:54:13;;;;;;;11.15;6.40;;;;;;;;;;143735;571;46029;-59
2021/05/22 04:56:40;;;;;;;13.90;6.57;;;;;;;;;;143732;613;46010;-60
2021/05/22 04:59:07;;;;;;;16.83;6.45;;;;;;;;;;143733;627;46020;-60
2021/05/22 05:01:34;;;;;;;13.05;6.05;;;;;;;;;;143735;565;46020;-59
2021/05/22 05:04:00;;;;;;;11.18;5.62;;;;;;;;;;143735;599;46020;-59
2021/05/22 05:06:28;;;;;;;16.77;5.87;;;;;;;;;;143732;591;46011;-60
2021/05/22 05:08:55;;;;;;;13.00;5.10;;;;;;;;;;143735;613;46021;-59
2021/05/22 05:11:22;;;;;;;10.70;5.65;;;;;;;;;;143737;627;46020;-59
2021/05/22 05:13:49;;;;;;;9.98;5.10;;;;;;;;;;143735;581;46021;-59
2021/05/22 05:16:16;;;;;;;11.20;5.40;;;;;;;;;;143732;579;46010;-59
2021/05/22 05:18:44;;;;;;;12.60;4.85;;;;;;;;;;143734;713;46020;-59
2021/05/22 05:21:11;;;;;;;6.90;4.18;;;;;;;;;;143737;727;45021;-59
2021/05/22 05:23:38;;;;;;;10.75;5.65;;;;;;;;;;143734;597;46021;-59
2021/05/22 05:26:06;;;;;;;10.23;5.03;;;;;;;;;;143732;574;46010;-58
2021/05/22 05:28:34;;;;;;;10.55;4.72;;;;;;;;;;143736;625;46020;-57
2021/05/22 05:31:01;;;;;;;18.33;4.97;;;;;;;;;;143737;625;45021;-56
2021/05/22 05:33:29;;;;;;;12.73;5.47;;;;;;;;;;143735;699;46020;-56
2021/05/22 05:35:56;;;;;;;16.52;4.97;;;;;;;;;;143732;659;46011;-57
2021/05/22 05:38:23;;;;;;;14.82;4.70;;;;;;;;;;143734;634;46021;-58
2021/05/22 05:40:54;;;;;;;25.30;5.62;;;;;;;;;;143738;701;45020;-59
2021/05/22 05:43:21;;;;;;;12.52;4.45;;;;;;;;;;143734;680;46021;-57
2021/05/22 05:45:48;;;;;;;11.23;4.53;;;;;;;;;;143732;579;46010;-57
2021/05/22 05:48:15;;;;;;;13.57;4.30;;;;;;;;;;143733;569;45020;-57
2021/05/22 05:50:42;;;;;;;14.80;4.47;;;;;;;;;;143731;593;46020;-56
2021/05/22 05:53:09;;;;;;;8.85;4.22;;;;;;;;;;143735;565;46020;-57
2021/05/22 05:55:36;;;;;;;8.18;3.20;;;;;;;;;;143734;650;46010;-56
2021/05/22 05:58:03;;;;;;;5.03;3.42;;;;;;;;;;143738;595;46020;-57
2021/05/22 06:00:30;;;;;;;12.13;4.78;;;;;;;;;;143737;593;46010;-58
2021/05/22 06:02:57;;;;;;;6.97;4.68;;;;;;;;;;143734;585;46037;-58
2021/05/22 06:05:24;;;;;;;14.10;4.62;;;;;;;;;;143736;622;46011;-58
2021/05/22 06:07:51;;;;;;;10.95;5.53;;;;;;;;;;143734;613;46019;-58
2021/05/22 06:10:18;;;;;;;16.45;10.45;;;;;;;;;;143737;637;45022;-59
2021/05/22 06:12:46;;;;;;;9.30;4.53;;;;;;;;;;143735;610;46019;-58
2021/05/22 06:17:58;;;;;;;11.35;4.45;;;;;;;;;;143736;634;46018;-59
2021/05/22 06:20:26;;;;;;;15.52;7.30;;;;;;;;;;143738;569;45023;-58
2021/05/22 06:22:53;;;;;;;12.48;6.50;;;;;;;;;;143736;576;46018;-58
2021/05/22 06:25:20;;;;;;;13.55;9.20;;;;;;;;;;143732;593;46010;-59
2021/05/22 06:27:47;;;;;;;11.00;6.80;;;;;;;;;;143735;580;46018;-58
2021/05/22 06:30:15;;;;;;;17.05;10.82;;;;;;;;;;143737;585;46023;-59
2021/05/22 06:32:42;;;;;;;12.35;6.93;;;;;;;;;;143735;653;46018;-59
2021/05/22 06:35:10;;;;;;;12.18;7.40;;;;;;;;;;143732;566;46011;-59
2021/05/22 06:37:37;;;;;;;9.05;6.82;;;;;;;;;;143733;594;46019;-59
2021/05/22 06:40:04;;;;;;;18.12;9.68;;;;;;;;;;143739;572;46022;-59
2021/05/22 06:42:33;;;;;;;11.20;8.00;;;;;;;;;;143735;591;47019;-59
2021/05/22 06:45:13;;;;;;;12.15;7.43;;;;;;;;;;143731;566;46010;-59
2021/05/22 06:47:40;;;;;;;14.55;11.10;;;;;;;;;;143733;610;46018;-59
2021/05/22 06:50:08;;;;;;;12.95;7.53;;;;;;;;;;143737;601;45022;-59
2021/05/22 06:52:35;;;;;;;12.02;6.32;;;;;;;;;;143735;569;46018;-59
2021/05/22 06:55:03;;;;;;;17.65;9.65;;;;;;;;;;143732;565;46010;-60
2021/05/22 06:57:30;;;;;;;17.65;12.00;;;;;;;;;;143736;566;46018;-60
2021/05/22 06:59:57;;;;;;;13.15;9.52;;;;;;;;;;143737;561;46012;-57
2021/05/22 07:02:24;;;;;;;15.52;7.15;;;;;;;;;;143733;600;47018;-58
2021/05/22 07:04:51;;;;;;;19.70;6.80;;;;;;;;;;143731;579;46011;-59
2021/05/22 07:07:18;;;;;;;12.25;7.90;;;;;;;;;;143734;623;46019;-59
2021/05/22 07:09:45;;;;;;;8.30;6.10;;;;;;;;;;143735;605;46022;-60
2021/05/22 07:12:12;;;;;;;10.15;6.72;;;;;;;;;;143739;604;46019;-60
2021/05/22 07:14:39;;;;;;;11.23;8.95;;;;;;;;;;143732;564;46010;-59
2021/05/22 07:17:06;;;;;;;11.02;7.75;;;;;;;;;;143737;593;45018;-58
2021/05/22 07:19:33;;;;;;;11.48;6.80;;;;;;;;;;143738;598;45022;-59
2021/05/22 07:22:00;;;;;;;14.07;8.00;;;;;;;;;;143735;621;46018;-58
2021/05/22 07:24:27;;;;;;;7.68;4.10;;;;;;;;;;143733;612;46010;-58
2021/05/22 07:26:56;;;;;;;10.18;6.78;;;;;;;;;;143735;564;46018;-58
2021/05/22 07:29:24;;;;;;;7.47;4.47;;;;;;;;;;143738;581;45023;-58
2021/05/22 07:31:51;;;;;;;7.18;5.37;;;;;;;;;;143740;569;46018;-58
2021/05/22 07:34:19;;;;;;;14.93;8.55;;;;;;;;;;143738;590;46010;-58
2021/05/22 07:36:45;;;;;;;10.85;6.80;;;;;;;;;;143735;587;45019;-59
2021/05/22 07:39:13;;;;;;;18.33;8.38;;;;;;;;;;143738;650;45038;-59
2021/05/22 07:41:41;;;;;;;7.20;5.20;;;;;;;;;;143734;668;46018;-58
2021/05/22 07:44:09;;;;;;;7.75;6.12;;;;;;;;;;143738;607;46010;-59
2021/05/22 07:46:36;;;;;;;11.02;7.00;;;;;;;;;;143741;588;46018;-59
2021/05/22 07:49:04;;;;;;;9.18;5.22;;;;;;;;;;143739;673;45022;-59
2021/05/22 07:51:31;;;;;;;10.90;7.10;;;;;;;;;;143736;735;46018;-59
2021/05/22 07:53:58;;;;;;;10.13;6.15;;;;;;;;;;143732;645;46010;-60
2021/05/22 07:56:25;;;;;;;10.18;7.25;;;;;;;;;;143734;572;46018;-60
2021/05/22 07:58:52;;;;;;;19.30;10.70;;;;;;;;;;143737;746;45037;-60
2021/05/22 08:01:19;;;;;;;16.92;11.43;;;;;;;;;;143735;579;46018;-60
2021/05/22 08:03:46;;;;;;;10.10;8.75;;;;;;;;;;143733;649;46010;-60
2021/05/22 08:06:13;;;;;;;7.47;6.05;;;;;;;;;;143737;663;46019;-60
2021/05/22 08:08:40;;;;;;;7.57;6.15;;;;;;;;;;143741;599;46022;-59
2021/05/22 08:11:07;;;;;;;12.48;8.00;;;;;;;;;;143740;724;46018;-60
2021/05/22 08:13:35;;;;;;;10.05;6.82;;;;;;;;;;143736;603;46023;-60
2021/05/22 08:16:02;;;;;;;7.43;4.32;;;;;;;;;;143734;658;46018;-60
2021/05/22 08:18:29;;;;;;;9.43;7.00;;;;;;;;;;143739;633;45028;-59
2021/05/22 08:20:57;;;;;;;8.38;5.32;;;;;;;;;;143738;703;46019;-58
2021/05/22 08:23:24;;;;;;;7.72;5.97;;;;;;;;;;143739;644;46010;-58
2021/05/22 08:25:51;;;;;;;6.12;4.72;;;;;;;;;;143738;609;46018;-59
2021/05/22 08:28:21;;;;;;;7.97;4.85;;;;;;;;;;143744;581;45023;-58
2021/05/22 08:30:51;;;;;;;7.03;5.32;;;;;;;;;;143737;652;46020;-59
2021/05/22 08:33:18;;;;;;;6.72;4.90;;;;;;;;;;143737;582;46010;-58
2021/05/22 08:35:46;;;;;;;16.58;6.12;;;;;;;;;;143740;567;46018;-57
2021/05/22 08:38:13;;;;;;;12.95;8.48;;;;;;;;;;143737;576;46022;-56
2021/05/22 08:40:40;;;;;;;18.20;13.90;;;;;;;;;;143735;586;47018;-57
2021/05/22 08:43:07;;;;;;;13.50;7.95;;;;;;;;;;143733;721;46011;-57
2021/05/22 08:45:33;;;;;;;15.18;8.98;;;;;;;;;;143732;655;46018;-57
2021/05/22 08:48:01;;;;;;;12.13;6.40;;;;;;;;;;143739;564;45022;-57
2021/05/22 08:50:28;;;;;;;12.00;7.35;;;;;;;;;;143736;597;46020;-58
2021/05/22 08:52:55;;;;;;;8.27;4.80;;;;;;;;;;143733;569;46010;-56
2021/05/22 08:55:23;;;;;;;11.55;5.68;;;;;;;;;;143729;620;47010;-58
2021/05/22 08:57:51;;;;;;;5.93;4.15;;;;;;;;;;143738;570;46022;-57
2021/05/22 09:00:22;;;;;;;6.55;3.90;;;;;;;;;;143736;569;46018;-56
2021/05/22 09:02:49;;;;;;;11.93;4.35;;;;;;;;;;143738;569;46022;-58
2021/05/22 09:05:27;;;;;;;6.68;4.55;;;;;;;;;;143734;655;46018;-58
2021/05/22 09:08:02;;;;;;;7.65;4.10;;;;;;;;;;143743;688;45022;-58
2021/05/22 09:10:36;;;;;;;8.80;4.45;;;;;;;;;;143741;589;46018;-57
2021/05/22 09:13:06;;;;;;;5.90;3.90;;;;;;;;;;143734;683;46010;-57
2021/05/22 09:15:35;;;;;;;6.80;4.62;;;;;;;;;;143737;566;46018;-57
2021/05/22 09:18:14;;;;;;;4.22;3.05;;;;;;;;;;143739;591;45022;-58
2021/05/22 09:20:49;;;;;;;6.47;3.30;;;;;;;;;;143737;587;46018;-58
2021/05/22 09:23:21;;;;;;;7.55;3.80;;;;;;;;;;143738;599;46010;-58
2021/05/22 09:25:54;;;;;;;11.12;5.18;;;;;;;;;;143736;583;46018;-59
2021/05/22 09:28:29;;;;;;;9.85;4.78;;;;;;;;;;143738;583;46012;-58
2021/05/22 09:30:59;;;;;;;12.95;4.87;;;;;;;;;;143737;667;46018;-59
2021/05/22 09:33:28;;;;;;;8.10;3.30;;;;;;;;;;143734;614;46010;-58
2021/05/22 09:36:01;;;;;;;6.68;3.75;;;;;;;;;;143739;688;46019;-58
2021/05/22 09:38:39;;;;;;;4.57;2.95;;;;;;;;;;143744;579;46022;-59
2021/05/22 09:41:32;;;;;;;8.27;3.70;;;;;;;;;;143739;572;45020;-59
2021/05/22 09:44:08;;;;;;;10.88;3.78;;;;;;;;;;143735;583;46010;-60
2021/05/22 09:46:38;;;;;;;7.25;5.10;;;;;;;;;;143735;648;46018;-60
2021/05/22 09:49:06;;;;;;;12.63;5.82;;;;;;;;;;143742;576;46023;-58
2021/05/22 09:51:34;;;;;;;12.27;7.22;;;;;;;;;;143737;583;46018;-58
2021/05/22 09:54:00;;;;;;;10.30;7.40;;;;;;;;;;143734;570;46010;-58
2021/05/22 09:56:28;;;;;;;9.10;5.28;;;;;;;;;;143736;564;46018;-59
2021/05/22 09:58:57;;;;;;;10.63;5.40;;;;;;;;;;143742;570;45023;-59
2021/05/22 10:01:42;;;;;;;12.68;5.50;;;;;;;;;;143737;608;46018;-59
2021/05/22 10:04:20;;;;;;;8.88;4.70;;;;;;;;;;143734;656;46010;-59
2021/05/22 10:06:48;;;;;;;9.93;5.85;;;;;;;;;;143740;589;46912;-60
2021/05/22 10:09:17;;;;;;;11.82;4.57;;;;;;;;;;143739;581;46022;-60
2021/05/22 10:12:16;;;;;;;5.22;3.42;;;;;;;;;;143737;614;46019;-59
2021/05/22 10:14:44;;;;;;;10.20;4.78;;;;;;;;;;143738;583;46010;-61
2021/05/22 10:17:13;;;;;;;6.70;3.80;;;;;;;;;;143735;570;46018;-60
2021/05/22 10:19:40;;;;;;;7.30;4.20;;;;;;;;;;143743;585;46012;-62
2021/05/22 10:22:09;;;;;;;6.75;4.22;;;;;;;;;;143736;682;46021;-61
2021/05/22 10:24:36;;;;;;;9.63;3.90;;;;;;;;;;143737;598;46010;-58
2021/05/22 10:27:04;;;;;;;9.23;4.70;;;;;;;;;;143738;570;46019;-60
2021/05/22 10:29:32;;;;;;;8.77;4.40;;;;;;;;;;143740;567;46012;-59
2021/05/22 10:31:59;;;;;;;8.05;5.32;;;;;;;;;;143736;587;46018;-59
2021/05/22 10:34:34;;;;;;;13.25;9.90;;;;;;;;;;143739;602;46011;-58
2021/05/22 10:37:01;;;;;;;12.70;7.25;;;;;;;;;;143735;585;46018;-59
2021/05/22 10:39:44;;;;;;;20.27;13.65;;;;;;;;;;143738;582;46012;-59
2021/05/22 10:42:50;;;;;;;12.93;10.05;;;;;;;;;;143738;615;46019;-59
2021/05/22 10:45:38;;;;;;;15.63;7.57;;;;;;;;;;143734;564;46010;-59
2021/05/22 10:48:26;;;;;;;11.20;7.22;;;;;;;;;;143734;625;46018;-60
2021/05/22 10:50:54;;;;;;;7.78;5.30;;;;;;;;;;143740;572;46010;-59
2021/05/22 10:53:33;;;;;;;10.20;5.75;;;;;;;;;;143741;573;46018;-60
2021/05/22 10:56:11;;;;;;;9.32;5.62;;;;;;;;;;143734;574;46011;-59
2021/05/22 10:58:40;;;;;;;10.20;5.22;;;;;;;;;;143738;595;45019;-59
2021/05/22 11:01:46;;;;;;;6.55;4.45;;;;;;;;;;143739;607;45050;-60
2021/05/22 11:04:35;;;;;;;5.70;3.87;;;;;;;;;;143737;581;46027;-59
2021/05/22 11:07:17;;;;;;;5.97;3.92;;;;;;;;;;143736;585;46010;-59
2021/05/22 11:09:51;;;;;;;7.07;3.72;;;;;;;;;;143734;613;46018;-59
2021/05/22 11:12:41;;;;;;;7.20;3.70;;;;;;;;;;143746;572;45023;-59
2021/05/22 11:16:00;;;;;;;4.25;3.05;;;;;;;;;;143737;596;46018;-59
2021/05/22 11:18:54;;;;;;;9.00;4.12;;;;;;;;;;143739;564;46010;-60
2021/05/22 11:21:24;;;;;;;10.30;3.08;;;;;;;;;;143741;592;46018;-59
2021/05/22 11:24:06;;;;;;;4.20;3.40;;;;;;;;;;143738;697;45022;-59
2021/05/22 11:27:05;;;;;;;5.05;3.35;;;;;;;;;;143737;595;46019;-59
2021/05/22 11:29:54;;;;;;;3.90;2.47;;;;;;;;;;143739;565;46010;-59
2021/05/22 11:33:11;;;;;;;5.68;3.62;;;;;;;;;;143738;603;46018;-59
2021/05/22 11:35:57;;;;;;;7.20;3.62;;;;;;;;;;143744;585;45023;-59
2021/05/22 11:38:29;;;;;;;6.60;3.42;;;;;;;;;;143741;603;46018;-59
2021/05/22 11:40:57;;;;;;;3.67;2.60;;;;;;;;;;143736;653;46011;-59
2021/05/22 11:43:32;;;;;;;2.95;2.10;;;;;;;;;;143738;705;46019;-60
2021/05/22 11:46:10;;;;;;;2.92;2.20;;;;;;;;;;143745;577;46022;-59
2021/05/22 11:48:51;;;;;;;5.97;2.80;;;;;;;;;;143740;580;46010;-59
2021/05/22 11:51:25;;;;;;;3.37;2.70;;;;;;;;;;143738;569;46010;-60
2021/05/22 11:54:01;;;;;;;4.43;2.80;;;;;;;;;;143741;563;46018;-59
2021/05/22 11:56:33;;;;;;;5.53;3.00;;;;;;;;;;143739;584;45052;-60
2021/05/22 11:59:02;;;;;;;3.08;2.20;;;;;;;;;;143738;599;46018;-60
2021/05/22 12:01:38;;;;;;;3.92;2.72;;;;;;;;;;143738;565;46010;-59
2021/05/22 12:04:07;;;;;;;5.60;2.50;;;;;;;;;;143743;598;45019;-60
2021/05/22 12:06:48;;;;;;;5.18;2.70;;;;;;;;;;143742;589;45022;-60
2021/05/22 12:09:21;;;;;;;3.37;2.60;;;;;;;;;;143736;590;46020;-59
2021/05/22 12:12:13;;;;;;;2.53;2.33;;;;;;;;;;143740;595;46010;-60
2021/05/22 12:14:47;;;;;;;4.22;1.83;;;;;;;;;;143741;702;45018;-60
2021/05/22 12:17:16;;;;;;;4.50;2.08;;;;;;;;;;143744;621;45022;-60
2021/05/22 12:19:50;;;;;;;3.58;2.08;;;;;;;;;;143742;564;46018;-60
2021/05/22 12:22:27;;;;;;;4.93;2.62;;;;;;;;;;143739;606;46010;-60
2021/05/22 12:24:55;;;;;;;3.35;1.80;;;;;;;;;;143736;594;46018;-60
2021/05/22 12:27:22;;;;;;;2.22;2.03;;;;;;;;;;143743;737;46023;-60
2021/05/22 12:29:52;;;;;;;3.83;2.55;;;;;;;;;;143741;565;46018;-60
2021/05/22 12:32:20;;;;;;;4.62;2.42;;;;;;;;;;143737;577;46011;-60
2021/05/22 12:34:55;;;;;;;7.72;2.55;;;;;;;;;;143735;595;46019;-60
2021/05/22 12:37:22;;;;;;;3.47;2.00;;;;;;;;;;143741;585;46022;-61
2021/05/22 12:39:52;;;;;;;3.28;2.37;;;;;;;;;;143738;587;46019;-60
2021/05/22 12:42:24;;;;;;;4.25;2.17;;;;;;;;;;143738;594;46010;-60
2021/05/22 12:44:59;;;;;;;3.42;2.08;;;;;;;;;;143737;573;46018;-60
2021/05/22 12:47:44;;;;;;;2.35;2.15;;;;;;;;;;143742;642;46022;-60
2021/05/22 12:50:13;;;;;;;3.20;1.65;;;;;;;;;;143740;657;46027;-61
2021/05/22 12:52:56;;;;;;;4.55;2.00;;;;;;;;;;143738;591;46010;-60
2021/05/22 12:55:29;;;;;;;2.07;1.57;;;;;;;;;;143737;750;46018;-60
2021/05/22 12:57:57;;;;;;;3.30;2.03;;;;;;;;;;143743;604;46022;-61
2021/05/22 13:00:28;;;;;;;3.03;2.22;;;;;;;;;;143738;659;46018;-60
2021/05/22 13:03:01;;;;;;;2.92;2.22;;;;;;;;;;143741;722;46010;-60
2021/05/22 13:05:30;;;;;;;3.78;1.87;;;;;;;;;;143740;611;46019;-60
2021/05/22 13:08:03;;;;;;;4.07;2.08;;;;;;;;;;143743;580;46022;-60
2021/05/22 13:10:35;;;;;;;5.57;2.28;;;;;;;;;;143742;601;46019;-60
2021/05/22 13:13:08;;;;;;;5.05;2.60;;;;;;;;;;143738;734;46012;-60
2021/05/22 13:15:40;;;;;;;2.35;2.05;;;;;;;;;;143741;602;46020;-60
2021/05/22 13:18:10;;;;;;;4.50;2.20;;;;;;;;;;143739;569;45021;-60
2021/05/22 13:20:39;;;;;;;3.97;2.58;;;;;;;;;;143738;617;46020;-60
2021/05/22 13:23:09;;;;;;;3.10;2.37;;;;;;;;;;143737;579;46012;-60
2021/05/22 13:25:36;;;;;;;5.43;2.50;;;;;;;;;;143734;579;46021;-60
2021/05/22 13:28:12;;;;;;;3.03;1.92;;;;;;;;;;143740;580;45020;-60
2021/05/22 13:30:44;;;;;;;3.78;2.58;;;;;;;;;;143733;569;46020;-60
2021/05/22 13:33:15;;;;;;;6.32;2.00;;;;;;;;;;143737;569;46012;-60
2021/05/22 13:35:43;;;;;;;3.85;2.42;;;;;;;;;;143741;571;46020;-61
2021/05/22 13:38:10;;;;;;;4.28;2.58;;;;;;;;;;143736;569;46020;-60
2021/05/22 13:40:40;;;;;;;9.15;2.80;;;;;;;;;;143736;609;46021;-60
2021/05/22 13:43:10;;;;;;;2.95;2.42;;;;;;;;;;143735;638;46012;-60
2021/05/22 13:45:38;;;;;;;3.55;2.00;;;;;;;;;;143734;586;46020;-61
2021/05/22 13:48:06;;;;;;;5.82;3.50;;;;;;;;;;143737;624;46020;-60
2021/05/22 13:50:34;;;;;;;3.75;2.65;;;;;;;;;;143735;666;46020;-61
2021/05/22 13:53:01;;;;;;;4.22;2.35;;;;;;;;;;143736;588;46012;-61
2021/05/22 13:55:28;;;;;;;4.00;2.65;;;;;;;;;;143735;593;46021;-60
2021/05/22 13:57:55;;;;;;;2.35;1.95;;;;;;;;;;143737;678;45021;-60
2021/05/22 14:00:22;;;;;;;2.78;2.25;;;;;;;;;;143728;596;47020;-60
2021/05/22 14:02:49;;;;;;;4.07;2.60;;;;;;;;;;143734;591;46012;-60
2021/05/22 14:05:16;;;;;;;4.93;2.40;;;;;;;;;;143738;566;46021;-61
2021/05/22 14:07:44;;;;;;;5.70;2.05;;;;;;;;;;143737;572;45020;-60
2021/05/22 14:10:12;;;;;;;4.18;2.10;;;;;;;;;;143740;647;46021;-60
2021/05/22 14:12:40;;;;;;;2.40;1.87;;;;;;;;;;143737;576;46012;-61
2021/05/22 14:15:08;;;;;;;3.05;2.03;;;;;;;;;;143733;644;46020;-60
2021/05/22 14:17:38;;;;;;;4.40;2.95;;;;;;;;;;143735;579;46021;-62
2021/05/22 14:20:07;;;;;;;5.45;3.92;;;;;;;;;;143736;574;46020;-60
2021/05/22 14:22:35;;;;;;;5.05;2.92;;;;;;;;;;143734;584;46020;-60
2021/05/22 14:25:03;;;;;;;2.15;2.00;;;;;;;;;;143738;583;46021;-60
2021/05/22 14:27:31;;;;;;;3.65;2.10;;;;;;;;;;143737;570;46012;-61
2021/05/22 14:29:58;;;;;;;7.28;2.42;;;;;;;;;;143737;579;46020;-60
2021/05/22 14:32:25;;;;;;;2.50;2.28;;;;;;;;;;143737;585;46013;-61
2021/05/22 14:34:52;;;;;;;5.35;2.10;;;;;;;;;;143736;628;46020;-60
2021/05/22 14:37:19;;;;;;;2.83;2.25;;;;;;;;;;143743;591;46020;-60
2021/05/22 14:39:46;;;;;;;3.85;2.62;;;;;;;;;;143735;572;46021;-60
2021/05/22 14:42:13;;;;;;;4.35;2.17;;;;;;;;;;143735;594;46012;-60
2021/05/22 14:44:41;;;;;;;3.25;2.40;;;;;;;;;;143734;610;46020;-60
2021/05/22 14:47:08;;;;;;;4.57;2.05;;;;;;;;;;143739;566;45021;-60
2021/05/22 14:49:35;;;;;;;3.83;2.92;;;;;;;;;;143733;571;47020;-60
2021/05/22 14:52:02;;;;;;;2.35;2.08;;;;;;;;;;143734;575;46012;-60
2021/05/22 14:54:29;;;;;;;7.50;2.67;;;;;;;;;;143741;566;46020;-60
2021/05/22 14:56:58;;;;;;;4.35;2.37;;;;;;;;;;143738;571;47023;-60
2021/05/22 14:59:25;;;;;;;10.15;2.40;;;;;;;;;;143732;576;46020;-60